Time;durP1;ratioP1;P1;durP2;ratioP2;P2;SDS_P1;SDS_P2;PMS_P1;PMS_P2;Temp;Humidity;BMP_temperature;BMP_pressure;BME280_temperature;BME280_humidity;BME280_pressure;Samples;Min_cycle;Max_cycle;Signal;HPM_P1;HPM_P2
2022/03/12 00:00:19;;;;;;;16.08;5.95;;;;;;;-5.01;47.90;99476.91;4409510;32;20093;-75
2022/03/12 00:02:46;;;;;;;17.60;6.18;;;;;;;-4.63;47.11;99470.91;4410062;32;20082;-75
2022/03/12 00:05:13;;;;;;;24.60;7.93;;;;;;;-5.10;47.71;99479.06;4410101;32;20086;-75
2022/03/12 00:07:42;;;;;;;20.62;7.03;;;;;;;-5.19;48.12;99471.97;4409691;32;20165;-75
2022/03/12 00:10:13;;;;;;;23.83;8.20;;;;;;;-5.53;48.72;99475.56;4409784;32;20493;-75
2022/03/12 00:12:41;;;;;;;18.08;6.65;;;;;;;-5.54;48.84;99478.84;4410001;32;20078;-75
2022/03/12 00:15:11;;;;;;;21.95;8.20;;;;;;;-5.49;49.78;99480.72;4408465;32;20113;-75
2022/03/12 00:17:42;;;;;;;20.17;8.13;;;;;;;-5.98;50.13;99486.12;4409777;32;20102;-75
2022/03/12 00:20:13;;;;;;;16.35;6.43;;;;;;;-5.20;48.58;99487.03;4409789;32;20103;-75
2022/03/12 00:22:43;;;;;;;24.17;7.60;;;;;;;-4.88;47.68;99483.34;4409839;32;20118;-75
2022/03/12 00:25:10;;;;;;;22.05;6.55;;;;;;;-5.36;48.27;99482.97;4408836;32;20111;-75
2022/03/12 00:27:41;;;;;;;19.73;8.27;;;;;;;-5.14;47.91;99485.59;4409466;32;20126;-75
2022/03/12 00:30:10;;;;;;;22.27;8.75;;;;;;;-5.25;47.93;99477.59;4409730;32;20101;-76
2022/03/12 00:32:37;;;;;;;21.58;8.38;;;;;;;-4.89;47.03;99485.00;4409025;32;20157;-75
2022/03/12 00:35:05;;;;;;;24.83;8.63;;;;;;;-4.98;46.42;99480.44;4409034;32;20430;-75
2022/03/12 00:37:32;;;;;;;22.73;7.93;;;;;;;-5.12;47.01;99476.44;4409607;32;20433;-75
2022/03/12 00:39:59;;;;;;;22.00;9.10;;;;;;;-5.18;47.45;99478.72;4409519;32;20440;-75
2022/03/12 00:42:26;;;;;;;20.95;8.38;;;;;;;-5.00;47.31;99479.50;4409255;32;20126;-75
2022/03/12 00:44:53;;;;;;;18.40;7.30;;;;;;;-5.29;47.80;99483.31;4409599;32;20085;-75
2022/03/12 00:47:20;;;;;;;19.67;7.40;;;;;;;-4.94;47.32;99483.91;4395994;32;20118;-75
2022/03/12 00:49:49;;;;;;;17.83;7.22;;;;;;;-5.08;47.10;99482.50;4409216;32;20108;-75
2022/03/12 00:52:17;;;;;;;16.90;7.05;;;;;;;-5.81;48.89;99477.66;4409334;32;20082;-75
2022/03/12 00:54:44;;;;;;;23.05;7.45;;;;;;;-5.77;49.01;99479.50;4408418;32;20554;-75
2022/03/12 00:57:12;;;;;;;26.60;7.35;;;;;;;-5.72;48.49;99473.03;4409125;32;20142;-75
2022/03/12 00:59:40;;;;;;;22.42;7.55;;;;;;;-5.36;47.96;99476.28;4409320;32;20110;-75
2022/03/12 01:02:10;;;;;;;19.62;7.25;;;;;;;-5.86;49.26;99474.91;4409248;32;20078;-74
2022/03/12 01:04:37;;;;;;;17.27;7.40;;;;;;;-5.63;48.87;99478.47;4407790;32;20102;-75
2022/03/12 01:07:04;;;;;;;24.30;8.18;;;;;;;-5.58;48.87;99473.63;4409281;32;20489;-75
2022/03/12 01:09:31;;;;;;;24.10;7.90;;;;;;;-6.00;49.64;99476.00;4408849;32;20105;-75
2022/03/12 01:11:58;;;;;;;18.37;7.62;;;;;;;-6.18;50.54;99475.16;4409084;32;20151;-75
2022/03/12 01:14:25;;;;;;;22.35;7.57;;;;;;;-6.35;51.32;99483.56;4409194;32;20090;-75
2022/03/12 01:16:56;;;;;;;23.35;7.25;;;;;;;-6.23;51.16;99484.13;4408636;32;20090;-74
2022/03/12 01:19:23;;;;;;;18.90;6.78;;;;;;;-6.63;52.46;99484.75;4409170;32;20099;-75
2022/03/12 01:21:51;;;;;;;14.95;6.47;;;;;;;-6.15;51.25;99486.22;4409045;32;20078;-75
2022/03/12 01:24:18;;;;;;;22.55;7.65;;;;;;;-5.90;49.83;99492.34;4408809;32;20123;-75
2022/03/12 01:26:44;;;;;;;22.73;6.43;;;;;;;-6.13;50.33;99493.81;4409062;32;20086;-75
2022/03/12 01:29:11;;;;;;;17.20;7.07;;;;;;;-5.88;49.86;99495.75;4395190;32;20471;-75
2022/03/12 01:31:38;;;;;;;17.77;6.53;;;;;;;-5.53;48.81;99488.16;4408570;32;20147;-75
2022/03/12 01:34:06;;;;;;;20.62;7.30;;;;;;;-5.89;49.82;99492.38;4409067;32;20106;-75
2022/03/12 01:36:33;;;;;;;21.85;8.07;;;;;;;-5.78;49.90;99482.81;4409033;32;20126;-75
2022/03/12 01:39:00;;;;;;;18.48;7.20;;;;;;;-5.55;48.71;99486.34;4408321;32;20171;-74
2022/03/12 01:41:30;;;;;;;23.05;7.37;;;;;;;-5.18;47.55;99490.44;4408768;32;20102;-75
2022/03/12 01:43:58;;;;;;;19.50;6.25;;;;;;;-5.08;46.94;99495.09;4407707;32;20103;-74
2022/03/12 01:46:34;;;;;;;17.23;6.68;;;;;;;-5.24;47.21;99491.91;4410645;32;20104;-75
2022/03/12 01:49:14;;;;;;;17.58;6.57;;;;;;;-5.18;47.25;99493.81;4410992;32;20165;-75
2022/03/12 01:51:43;;;;;;;18.42;6.82;;;;;;;-5.32;47.67;99494.88;4409432;32;20149;-75
2022/03/12 01:54:11;;;;;;;21.52;8.02;;;;;;;-5.51;47.95;99497.41;4410779;32;20098;-75
2022/03/12 01:56:38;;;;;;;20.85;7.15;;;;;;;-5.52;48.49;99506.63;4409778;32;20190;-75
2022/03/12 01:59:05;;;;;;;19.77;6.20;;;;;;;-5.33;47.87;99513.28;4410388;32;20089;-75
2022/03/12 02:01:33;;;;;;;16.10;5.72;;;;;;;-5.51;48.44;99508.34;4397242;32;20097;-74
2022/03/12 02:04:00;;;;;;;14.23;5.30;;;;;;;-5.98;49.59;99501.19;4410841;32;20105;-76
2022/03/12 02:06:27;;;;;;;15.80;5.50;;;;;;;-7.76;54.77;99506.69;4410522;32;20136;-75
2022/03/12 02:08:58;;;;;;;16.35;5.62;;;;;;;-6.84;52.34;99503.81;4410686;32;20172;-75
2022/03/12 02:11:27;;;;;;;17.95;5.87;;;;;;;-6.60;52.19;99497.44;4410718;32;20082;-75
2022/03/12 02:14:16;;;;;;;17.62;6.18;;;;;;;-6.58;51.67;99507.59;4410301;32;20460;-75
2022/03/12 02:16:46;;;;;;;15.13;5.97;;;;;;;-5.66;50.00;99507.63;4409395;32;20093;-75
2022/03/12 02:19:13;;;;;;;15.27;5.32;;;;;;;-6.20;50.20;99507.75;4410544;32;20169;-75
2022/03/12 02:21:44;;;;;;;13.93;5.55;;;;;;;-6.56;51.98;99509.38;4410371;32;20073;-75
2022/03/12 02:24:14;;;;;;;16.75;6.55;;;;;;;-6.37;52.44;99513.63;4410678;32;20098;-75
2022/03/12 02:26:43;;;;;;;14.63;5.15;;;;;;;-6.33;52.18;99507.09;4409269;32;20415;-75
2022/03/12 02:29:12;;;;;;;15.30;5.50;;;;;;;-5.89;50.67;99502.44;4410560;32;20112;-74
2022/03/12 02:31:42;;;;;;;17.98;6.22;;;;;;;-6.06;50.69;99512.53;4409419;32;20433;-75
2022/03/12 02:34:10;;;;;;;14.55;5.20;;;;;;;-5.76;49.55;99515.56;4409200;32;20099;-75
2022/03/12 02:36:38;;;;;;;17.48;5.72;;;;;;;-5.46;48.75;99509.38;4410756;32;20108;-74
2022/03/12 02:39:07;;;;;;;17.37;5.60;;;;;;;-5.75;49.25;99498.03;4410385;32;20152;-75
2022/03/12 02:41:34;;;;;;;14.63;5.43;;;;;;;-5.88;49.64;99504.16;4409087;32;20101;-74
2022/03/12 02:44:01;;;;;;;15.85;4.80;;;;;;;-5.77;48.72;99498.75;4409454;32;20161;-75
2022/03/12 02:46:31;;;;;;;13.40;4.25;;;;;;;-5.44;47.86;99492.69;4410580;32;20124;-75
2022/03/12 02:48:59;;;;;;;12.50;4.80;;;;;;;-4.73;46.17;99504.94;4396615;32;20102;-75
2022/03/12 02:51:26;;;;;;;17.17;6.07;;;;;;;-4.70;45.96;99504.19;4410464;32;20184;-75
2022/03/12 02:53:56;;;;;;;17.85;5.82;;;;;;;-5.34;47.17;99498.97;4410485;32;20113;-75
2022/03/12 02:56:24;;;;;;;15.32;5.70;;;;;;;-5.36;46.74;99501.44;4409594;32;20112;-75
2022/03/12 02:58:51;;;;;;;13.45;5.53;;;;;;;-4.50;45.39;99498.31;4410188;32;20082;-75
2022/03/12 03:01:19;;;;;;;18.33;5.43;;;;;;;-4.19;44.29;99500.38;4409310;32;20104;-75
2022/03/12 03:03:46;;;;;;;15.82;5.37;;;;;;;-4.62;44.52;99492.78;4410050;32;20491;-75
2022/03/12 03:06:14;;;;;;;13.38;4.65;;;;;;;-5.31;46.11;99496.63;4410539;32;20162;-75
2022/03/12 03:08:42;;;;;;;14.95;4.95;;;;;;;-5.62;46.91;99499.47;4408887;32;20098;-74
2022/03/12 03:11:15;;;;;;;15.90;5.30;;;;;;;-5.85;47.35;99500.91;4410270;32;20413;-75
2022/03/12 03:13:44;;;;;;;15.48;4.90;;;;;;;-5.96;48.15;99502.12;4410439;32;20162;-75
2022/03/12 03:16:22;;;;;;;14.38;5.47;;;;;;;-5.82;47.99;99494.41;4408684;32;20110;-76
2022/03/12 03:18:53;;;;;;;16.65;5.12;;;;;;;-5.67;48.19;99496.72;4410234;32;20082;-75
2022/03/12 03:21:23;;;;;;;17.80;4.70;;;;;;;-5.24;46.83;99496.06;4410383;32;20090;-75
2022/03/12 03:23:52;;;;;;;15.13;4.72;;;;;;;-5.39;46.82;99498.81;4409968;32;20158;-75
2022/03/12 03:26:50;;;;;;;15.25;5.18;;;;;;;-5.88;48.44;99493.25;4410356;32;20086;-75
2022/03/12 03:29:19;;;;;;;14.25;5.40;;;;;;;-6.26;49.48;99501.59;4410299;32;20147;-74
2022/03/12 03:31:47;;;;;;;13.18;4.87;;;;;;;-5.86;48.98;99505.09;4409925;32;20103;-74
2022/03/12 03:34:15;;;;;;;13.48;4.85;;;;;;;-6.08;49.75;99499.03;4410227;32;20103;-75
2022/03/12 03:36:42;;;;;;;15.35;4.97;;;;;;;-6.00;49.70;99505.28;4409036;32;20164;-74
2022/03/12 03:39:09;;;;;;;17.08;4.82;;;;;;;-6.03;49.77;99497.63;4410128;32;20453;-75
2022/03/12 03:41:36;;;;;;;15.85;5.22;;;;;;;-6.30;50.32;99508.09;4410115;32;20157;-75
2022/03/12 03:44:05;;;;;;;13.77;5.00;;;;;;;-6.09;50.34;99497.31;4409944;32;20159;-75
2022/03/12 03:46:32;;;;;;;17.45;4.80;;;;;;;-6.02;49.87;99502.72;4410204;32;20520;-74
2022/03/12 03:49:00;;;;;;;13.45;5.20;;;;;;;-5.84;49.21;99506.03;4410105;32;20495;-75
2022/03/12 03:51:27;;;;;;;14.02;5.70;;;;;;;-5.75;48.25;99502.19;4409786;32;20078;-74
2022/03/12 03:53:54;;;;;;;17.02;6.10;;;;;;;-6.24;49.51;99510.91;4410124;32;20472;-75
2022/03/12 03:56:21;;;;;;;14.35;5.03;;;;;;;-5.67;48.47;99504.25;4410196;32;20102;-75
2022/03/12 03:58:48;;;;;;;15.10;4.40;;;;;;;-5.05;47.49;99505.28;4409497;32;20094;-75
2022/03/12 04:01:17;;;;;;;16.08;5.82;;;;;;;-4.93;46.76;99508.28;4408986;32;20106;-75
2022/03/12 04:03:48;;;;;;;12.48;4.40;;;;;;;-4.88;46.23;99506.00;4410049;32;20109;-75
2022/03/12 04:06:18;;;;;;;14.87;4.57;;;;;;;-5.57;47.70;99503.00;4409750;32;20426;-74
2022/03/12 04:08:45;;;;;;;16.42;5.37;;;;;;;-5.97;49.23;99521.34;4409894;32;20157;-75
2022/03/12 04:11:22;;;;;;;19.73;4.95;;;;;;;-7.32;53.69;99501.44;4408766;32;20108;-75
2022/03/12 04:13:52;;;;;;;13.93;5.12;;;;;;;-6.03;50.90;99515.22;4409680;32;20410;-75
2022/03/12 04:16:20;;;;;;;13.88;5.30;;;;;;;-5.76;48.54;99510.53;4409727;32;20104;-75
2022/03/12 04:18:49;;;;;;;14.07;5.00;;;;;;;-6.15;49.47;99523.91;4408595;32;20101;-74
2022/03/12 04:21:18;;;;;;;14.93;4.80;;;;;;;-6.28;50.06;99529.13;4409968;32;20097;-75
2022/03/12 04:23:47;;;;;;;16.05;5.15;;;;;;;-6.96;52.68;99518.25;4409751;32;20153;-75
2022/03/12 04:26:15;;;;;;;14.52;5.12;;;;;;;-6.92;52.74;99512.59;4409551;32;20473;-75
2022/03/12 04:28:42;;;;;;;18.65;5.55;;;;;;;-6.59;52.24;99519.28;4409781;32;20165;-74
2022/03/12 04:31:11;;;;;;;14.45;5.05;;;;;;;-6.18;50.91;99515.34;4409838;32;20086;-75
2022/03/12 04:33:40;;;;;;;13.52;4.55;;;;;;;-6.29;51.18;99522.38;4408367;32;20116;-74
2022/03/12 04:36:12;;;;;;;15.27;4.75;;;;;;;-6.48;51.36;99525.69;4396114;32;20531;-75
2022/03/12 04:38:40;;;;;;;13.95;5.22;;;;;;;-6.29;51.09;99524.88;4409733;32;20478;-75
2022/03/12 04:41:08;;;;;;;14.35;5.07;;;;;;;-6.59;51.96;99515.88;4408025;32;20165;-75
2022/03/12 04:43:35;;;;;;;18.12;5.53;;;;;;;-6.84;52.98;99521.37;4408506;32;20169;-75
2022/03/12 04:46:02;;;;;;;15.35;5.10;;;;;;;-6.33;51.94;99514.63;4409680;32;20129;-75
2022/03/12 04:48:30;;;;;;;13.88;4.97;;;;;;;-6.01;50.83;99509.47;4409161;32;20216;-75
2022/03/12 04:50:57;;;;;;;16.33;4.87;;;;;;;-6.01;50.87;99514.47;4408182;32;20111;-75
2022/03/12 04:53:25;;;;;;;14.55;5.47;;;;;;;-6.01;50.39;99518.66;4409597;32;20093;-75
2022/03/12 04:55:52;;;;;;;17.98;5.72;;;;;;;-6.39;51.09;99516.84;4409206;32;20150;-75
2022/03/12 04:58:19;;;;;;;14.32;4.68;;;;;;;-6.13;50.85;99518.94;4409428;32;20094;-74
2022/03/12 05:00:47;;;;;;;12.93;4.78;;;;;;;-6.20;51.25;99521.94;4409119;32;20157;-74
2022/03/12 05:03:18;;;;;;;14.55;4.47;;;;;;;-6.16;51.05;99518.81;4409053;32;20522;-75
2022/03/12 05:05:48;;;;;;;14.25;4.97;;;;;;;-6.09;51.08;99510.75;4409442;32;20158;-75
2022/03/12 05:08:18;;;;;;;15.00;4.10;;;;;;;-5.98;50.39;99514.63;4407911;32;20125;-75
2022/03/12 05:10:50;;;;;;;13.10;4.72;;;;;;;-5.61;49.35;99517.12;4407943;32;20171;-75
2022/03/12 05:13:22;;;;;;;16.25;5.32;;;;;;;-6.17;50.33;99522.97;4409442;32;20149;-74
2022/03/12 05:15:52;;;;;;;14.25;5.18;;;;;;;-6.04;50.78;99518.53;4407716;32;20094;-75
2022/03/12 05:18:20;;;;;;;16.33;5.28;;;;;;;-5.75;50.23;99514.75;4409235;32;20116;-75
2022/03/12 05:20:47;;;;;;;18.73;6.68;;;;;;;-6.57;52.38;99511.81;4410328;32;20154;-75
2022/03/12 05:23:16;;;;;;;22.60;7.18;;;;;;;-6.09;51.63;99514.91;4410813;32;20106;-74
2022/03/12 05:25:46;;;;;;;18.83;6.45;;;;;;;-5.76;50.35;99513.03;4411188;32;20105;-75
2022/03/12 05:28:15;;;;;;;14.13;4.82;;;;;;;-5.90;49.97;99520.81;4411069;32;20082;-74
2022/03/12 05:30:46;;;;;;;17.12;5.85;;;;;;;-6.67;52.91;99522.22;4409324;32;20104;-74
2022/03/12 05:33:14;;;;;;;16.75;5.80;;;;;;;-6.23;51.84;99520.16;4411210;32;20157;-74
2022/03/12 05:35:42;;;;;;;16.02;6.00;;;;;;;-6.19;51.77;99511.13;4409918;32;20114;-75
2022/03/12 05:38:11;;;;;;;14.35;5.75;;;;;;;-6.13;51.98;99523.97;4410560;32;20433;-74
2022/03/12 05:40:44;;;;;;;16.05;6.32;;;;;;;-5.75;51.31;99513.09;4410894;32;20460;-75
2022/03/12 05:43:17;;;;;;;19.87;6.62;;;;;;;-5.41;49.64;99510.47;4409507;32;20098;-75
2022/03/12 05:45:49;;;;;;;16.83;5.90;;;;;;;-5.57;53.16;99505.53;4411164;32;20432;-75
2022/03/12 05:48:17;;;;;;;15.55;5.12;;;;;;;-4.26;49.38;99515.19;4410949;32;20087;-75
2022/03/12 05:50:45;;;;;;;15.27;5.70;;;;;;;-2.76;45.72;99519.03;4410415;32;20158;-75
2022/03/12 05:53:14;;;;;;;16.45;5.82;;;;;;;-1.26;40.83;99517.75;4411103;32;20161;-75
2022/03/12 05:55:41;;;;;;;17.17;5.85;;;;;;;0.36;36.88;99518.31;4410955;32;20119;-75
2022/03/12 05:58:12;;;;;;;17.20;5.85;;;;;;;1.52;34.25;99518.88;4396846;32;20090;-75
2022/03/12 06:00:42;;;;;;;14.70;5.50;;;;;;;2.27;32.70;99520.03;4409560;32;20107;-75
2022/03/12 06:03:10;;;;;;;16.05;5.72;;;;;;;3.24;32.63;99524.59;4410782;32;20445;-75
2022/03/12 06:05:41;;;;;;;14.27;5.70;;;;;;;4.26;30.27;99517.75;4410543;32;20094;-75
2022/03/12 06:08:09;;;;;;;18.52;6.40;;;;;;;4.53;29.11;99524.72;4410864;32;20092;-76
2022/03/12 06:10:37;;;;;;;14.35;5.65;;;;;;;5.56;28.65;99524.19;4409351;32;20159;-76
2022/03/12 06:13:05;;;;;;;14.10;4.93;;;;;;;5.88;26.89;99521.63;4410611;32;20098;-76
2022/03/12 06:15:35;;;;;;;15.80;5.68;;;;;;;6.80;25.96;99529.13;4409444;32;20098;-76
2022/03/12 06:18:03;;;;;;;14.23;5.32;;;;;;;7.36;25.03;99521.16;4410693;32;20120;-76
2022/03/12 06:20:30;;;;;;;17.60;5.12;;;;;;;7.50;25.09;99531.34;4410575;32;20094;-76
2022/03/12 06:22:57;;;;;;;15.98;5.78;;;;;;;7.88;25.27;99528.50;4410816;32;20156;-76
2022/03/12 06:25:23;;;;;;;;;;;;;;;8.81;24.13;99532.69;4410764;32;20108;-76
2022/03/12 06:27:54;;;;;;;13.45;5.22;;;;;;;9.68;22.13;99535.81;4410752;32;20032;-76
2022/03/12 06:30:27;;;;;;;15.48;6.03;;;;;;;9.84;20.93;99540.69;4410198;32;20117;-76
2022/03/12 06:32:55;;;;;;;14.55;5.40;;;;;;;9.23;22.38;99541.59;4408863;32;20638;-76
2022/03/12 06:35:25;;;;;;;14.02;5.70;;;;;;;9.06;22.82;99540.12;4410706;32;20102;-76
2022/03/12 06:37:53;;;;;;;12.50;4.90;;;;;;;9.32;23.06;99540.62;4409520;32;20094;-76
2022/03/12 06:40:20;;;;;;;13.10;5.50;;;;;;;8.70;23.25;99532.81;4410123;32;20560;-77
2022/03/12 06:42:49;;;;;;;15.45;5.60;;;;;;;8.12;25.28;99533.41;4410738;32;20162;-76
2022/03/12 06:45:16;;;;;;;11.55;4.90;;;;;;;7.43;24.87;99542.50;4410552;32;20113;-76
2022/03/12 06:47:46;;;;;;;12.70;5.12;;;;;;;5.25;27.38;99541.19;4410178;32;20157;-76
2022/03/12 06:50:17;;;;;;;8.95;3.65;;;;;;;3.98;28.72;99538.00;4409329;32;20082;-76
2022/03/12 06:52:48;;;;;;;9.55;3.58;;;;;;;3.35;29.60;99548.50;4410519;32;20462;-76
2022/03/12 06:55:21;;;;;;;10.05;3.45;;;;;;;3.76;29.22;99546.34;4409173;32;20115;-76
2022/03/12 06:57:51;;;;;;;12.95;4.43;;;;;;;3.44;30.43;99553.69;4409428;32;20094;-76
2022/03/12 07:00:22;;;;;;;6.90;2.90;;;;;;;3.28;29.68;99546.72;4409893;32;20396;-76
2022/03/12 07:02:50;;;;;;;12.77;3.83;;;;;;;3.28;28.53;99550.13;4409460;32;20479;-76
2022/03/12 07:05:17;;;;;;;11.05;3.58;;;;;;;2.99;30.27;99557.47;4409353;32;20528;-76
2022/03/12 07:07:44;;;;;;;;;;;;;;;2.67;29.10;99562.19;4410405;32;20177;-76
2022/03/12 07:10:11;;;;;;;13.43;3.85;;;;;;;2.01;30.91;99555.28;4410204;32;19979;-76
2022/03/12 07:12:38;;;;;;;;;;;;;;;2.25;29.80;99558.19;4410789;32;20098;-76
2022/03/12 07:15:05;;;;;;;12.20;4.57;;;;;;;2.60;29.27;99560.38;4410187;32;19970;-76
2022/03/12 07:17:33;;;;;;;11.27;4.00;;;;;;;2.80;29.29;99563.19;4409979;32;20082;-76
2022/03/12 07:20:00;;;;;;;9.52;3.22;;;;;;;2.60;30.58;99556.12;4410063;32;20369;-75
2022/03/12 07:22:27;;;;;;;7.25;2.33;;;;;;;2.93;29.51;99559.09;4410004;32;20380;-76
2022/03/12 07:24:54;;;;;;;6.75;2.67;;;;;;;3.23;28.38;99566.25;4410420;32;20102;-76
2022/03/12 07:27:21;;;;;;;;;;;;;;;3.65;28.10;99571.78;4410811;32;20104;-76
2022/03/12 07:29:48;;;;;;;10.80;3.42;;;;;;;3.61;27.96;99564.91;4410001;32;20053;-76
2022/03/12 07:32:15;;;;;;;;;;;;;;;3.73;28.75;99561.63;4410637;32;20124;-76
2022/03/12 07:34:43;;;;;;;11.73;4.55;;;;;;;4.36;27.60;99570.62;4409278;32;19989;-76
2022/03/12 07:37:11;;;;;;;11.18;3.87;;;;;;;4.58;27.06;99556.28;4409923;32;20160;-76
2022/03/12 07:39:39;;;;;;;10.55;3.85;;;;;;;4.46;27.53;99558.75;4410009;32;20151;-76
2022/03/12 07:42:07;;;;;;;12.10;3.87;;;;;;;3.30;28.78;99566.31;4409638;32;20361;-76
2022/03/12 07:44:34;;;;;;;10.57;3.80;;;;;;;3.47;28.41;99562.22;4408792;32;20120;-76
2022/03/12 07:47:01;;;;;;;8.75;3.50;;;;;;;3.71;27.46;99568.41;4410244;32;20104;-76
2022/03/12 07:49:28;;;;;;;6.70;2.62;;;;;;;3.89;27.14;99560.91;4409840;32;20108;-76
2022/03/12 07:51:55;;;;;;;8.38;2.92;;;;;;;3.81;28.71;99559.13;4410067;32;20106;-76
2022/03/12 07:54:23;;;;;;;9.77;3.42;;;;;;;4.31;26.55;99556.97;4410211;32;20113;-76
2022/03/12 07:56:50;;;;;;;8.50;3.15;;;;;;;4.06;27.97;99567.00;4409819;32;20429;-76
2022/03/12 07:59:18;;;;;;;14.95;5.32;;;;;;;3.70;27.87;99561.59;4409914;32;20376;-77
2022/03/12 08:01:46;;;;;;;13.95;3.87;;;;;;;4.79;26.58;99553.81;4409969;32;20369;-76
2022/03/12 08:04:13;;;;;;;12.43;4.55;;;;;;;4.97;26.96;99554.72;4409787;32;20350;-76
2022/03/12 08:06:40;;;;;;;;;;;;;;;4.40;27.90;99553.63;4410316;32;20081;-76
2022/03/12 08:09:07;;;;;;;10.98;3.37;;;;;;;3.68;27.33;99559.03;4409964;32;19961;-76
2022/03/12 08:11:35;;;;;;;9.52;3.25;;;;;;;4.32;26.92;99563.78;4409647;32;20158;-76
2022/03/12 08:14:05;;;;;;;18.95;4.45;;;;;;;4.36;26.66;99555.31;4410073;32;20102;-76
2022/03/12 08:16:37;;;;;;;11.63;3.85;;;;;;;3.86;26.94;99555.78;4398862;32;317708;-76
2022/03/12 08:19:06;;;;;;;10.95;3.60;;;;;;;3.70;27.81;99557.34;4409418;32;20153;-76
2022/03/12 08:21:34;;;;;;;14.48;4.95;;;;;;;4.02;26.92;99557.59;4408716;32;20440;-76
2022/03/12 08:24:02;;;;;;;11.23;3.97;;;;;;;4.15;26.97;99563.69;4408868;32;20117;-76
2022/03/12 08:26:31;;;;;;;13.48;4.47;;;;;;;3.90;27.83;99556.66;4409576;32;20110;-76
2022/03/12 08:28:58;;;;;;;12.37;3.67;;;;;;;3.90;28.40;99542.19;4409573;32;20090;-76
2022/03/12 08:31:24;;;;;;;;;;;;;;;3.71;27.34;99548.84;4409548;32;20106;-75
2022/03/12 08:33:52;;;;;;;8.50;3.58;;;;;;;4.10;26.20;99554.25;4409886;32;19977;-76
2022/03/12 08:36:18;;;;;;;;;;;;;;;4.14;26.22;99541.50;4410056;32;20098;-76
2022/03/12 08:38:45;;;;;;;10.52;3.78;;;;;;;4.33;26.58;99550.16;4409400;32;19985;-76
2022/03/12 08:41:14;;;;;;;10.50;4.00;;;;;;;4.35;26.32;99543.34;4409485;32;20121;-76
2022/03/12 08:43:41;;;;;;;12.43;4.32;;;;;;;4.28;25.94;99549.28;4409649;32;20090;-76
2022/03/12 08:46:09;;;;;;;10.50;4.12;;;;;;;4.34;26.82;99545.03;4409369;32;20137;-76
2022/03/12 08:48:36;;;;;;;11.52;4.32;;;;;;;4.83;25.27;99552.97;4409647;32;20074;-76
2022/03/12 08:51:04;;;;;;;12.80;5.43;;;;;;;4.97;24.72;99544.50;4409416;32;20410;-76
2022/03/12 08:53:31;;;;;;;12.55;4.70;;;;;;;5.16;25.45;99551.37;4408612;32;20173;-76
2022/03/12 08:56:01;;;;;;;13.38;4.65;;;;;;;5.08;23.83;99553.91;4408969;32;20100;-76
2022/03/12 08:58:29;;;;;;;9.68;4.05;;;;;;;4.91;24.36;99547.91;4409527;32;20078;-76
2022/03/12 09:00:58;;;;;;;15.65;6.25;;;;;;;4.87;25.19;99533.38;4407811;32;20110;-76
2022/03/12 09:03:27;;;;;;;12.43;4.25;;;;;;;5.71;24.16;99539.53;4408308;32;20452;-76
2022/03/12 09:05:54;;;;;;;7.12;2.72;;;;;;;5.84;23.72;99542.09;4409365;32;20104;-76
2022/03/12 09:08:21;;;;;;;13.48;4.50;;;;;;;5.72;25.04;99536.13;4395361;32;20074;-76
2022/03/12 09:10:48;;;;;;;;;;;;;;;6.33;23.20;99532.69;4409437;32;20127;-77
2022/03/12 09:13:16;;;;;;;9.73;2.97;;;;;;;5.52;23.53;99543.78;4409419;32;20383;-76
2022/03/12 09:15:43;;;;;;;13.20;4.68;;;;;;;5.28;23.98;99543.75;4409021;32;20117;-76
2022/03/12 09:18:10;;;;;;;10.65;3.35;;;;;;;6.02;22.66;99535.28;4409072;32;20073;-76
2022/03/12 09:20:43;;;;;;;12.30;4.82;;;;;;;5.38;23.78;99535.22;4408424;32;20579;-77
2022/03/12 09:23:10;;;;;;;13.50;4.15;;;;;;;5.86;23.52;99532.72;4409202;32;20150;-77
2022/03/12 09:25:37;;;;;;;8.90;3.50;;;;;;;5.87;23.54;99532.72;4409119;32;20485;-76
2022/03/12 09:28:04;;;;;;;;;;;;;;;6.28;22.78;99537.84;4409062;32;20082;-76
2022/03/12 09:30:31;;;;;;;15.52;5.80;;;;;;;5.32;23.17;99542.06;4408926;32;20031;-76
2022/03/12 09:32:58;;;;;;;14.40;5.82;;;;;;;5.78;22.64;99532.72;4409123;32;20592;-77
2022/03/12 09:35:25;;;;;;;16.10;5.90;;;;;;;5.87;22.93;99532.72;4408638;32;20628;-77
2022/03/12 09:37:54;;;;;;;11.23;3.55;;;;;;;6.14;22.54;99528.44;4409004;32;20343;-77
2022/03/12 09:40:22;;;;;;;11.00;4.60;;;;;;;6.42;22.31;99534.41;4408706;32;20094;-77
2022/03/12 09:42:49;;;;;;;8.82;3.45;;;;;;;6.30;22.54;99531.00;4408680;32;20558;-77
2022/03/12 09:45:16;;;;;;;14.13;5.10;;;;;;;6.48;21.77;99535.22;4408778;32;20463;-77
2022/03/12 09:47:43;;;;;;;13.02;4.45;;;;;;;6.38;22.26;99531.00;4408887;32;20366;-77
2022/03/12 09:50:11;;;;;;;11.55;4.40;;;;;;;7.43;21.22;99534.78;4408386;32;20146;-77
2022/03/12 09:52:38;;;;;;;11.38;4.75;;;;;;;7.64;21.44;99529.50;4408781;32;20659;-77
2022/03/12 09:55:05;;;;;;;15.65;4.97;;;;;;;7.60;20.54;99520.13;4408807;32;20447;-77
2022/03/12 09:57:34;;;;;;;12.95;5.12;;;;;;;7.74;20.51;99527.72;4408419;32;20246;-77
2022/03/12 10:00:04;;;;;;;13.02;5.00;;;;;;;7.17;20.60;99535.81;4408513;32;20098;-76
2022/03/12 10:02:31;;;;;;;13.80;4.95;;;;;;;7.58;20.42;99524.44;4407476;32;20165;-76
2022/03/12 10:04:58;;;;;;;10.85;4.57;;;;;;;7.46;20.63;99525.38;4408358;32;20082;-76
2022/03/12 10:07:25;;;;;;;;;;;;;;;7.42;20.22;99523.66;4411220;32;20472;-76
2022/03/12 10:09:51;;;;;;;12.80;4.80;;;;;;;7.80;20.97;99522.56;4410410;32;19982;-76
2022/03/12 10:12:19;;;;;;;;;;;;;;;7.03;20.90;99527.34;4411084;32;20111;-77
2022/03/12 10:14:49;;;;;;;11.98;5.00;;;;;;;6.75;21.10;99516.34;4410899;32;19965;-76
2022/03/12 10:17:18;;;;;;;12.65;4.72;;;;;;;7.54;21.09;99512.44;4409112;32;20095;-77
2022/03/12 10:19:46;;;;;;;13.23;4.68;;;;;;;7.86;20.19;99511.34;4410633;32;20437;-76
2022/03/12 10:22:14;;;;;;;13.05;5.57;;;;;;;8.28;20.18;99505.81;4410726;32;20115;-77
2022/03/12 10:24:41;;;;;;;12.23;4.50;;;;;;;7.95;19.92;99501.84;4410363;32;20161;-76
2022/03/12 10:27:08;;;;;;;7.80;3.28;;;;;;;7.14;20.45;99499.91;4410684;32;20104;-76
2022/03/12 10:29:36;;;;;;;10.68;4.18;;;;;;;7.29;20.04;99496.38;4410658;32;20118;-77
2022/03/12 10:32:25;;;;;;;10.68;4.15;;;;;;;7.72;19.95;99498.63;4410285;32;20145;-76
2022/03/12 10:34:56;;;;;;;10.98;4.53;;;;;;;6.91;20.16;99486.31;4409453;32;20108;-76
2022/03/12 10:37:25;;;;;;;11.63;4.28;;;;;;;7.12;19.82;99480.22;4410804;32;20117;-76
2022/03/12 10:40:16;;;;;;;11.50;4.57;;;;;;;7.47;19.99;99478.28;4410118;32;20120;-77
2022/03/12 10:42:49;;;;;;;12.50;4.53;;;;;;;8.21;20.19;99478.47;4410711;32;20147;-76
2022/03/12 10:45:21;;;;;;;11.12;4.40;;;;;;;8.26;19.11;99481.84;4410282;32;20098;-77
2022/03/12 10:47:50;;;;;;;9.60;3.67;;;;;;;8.08;19.08;99479.44;4410660;32;20134;-77
2022/03/12 10:50:22;;;;;;;12.02;3.35;;;;;;;8.11;18.68;99487.16;4409231;32;20146;-77
2022/03/12 10:52:51;;;;;;;10.38;4.03;;;;;;;8.12;18.80;99479.41;4410218;32;20117;-76
2022/03/12 10:55:23;;;;;;;10.93;3.45;;;;;;;7.22;19.25;99475.00;4410507;32;20082;-76
2022/03/12 10:58:02;;;;;;;10.30;3.85;;;;;;;7.51;19.15;99467.09;4410604;32;20098;-77
2022/03/12 11:00:35;;;;;;;9.25;3.50;;;;;;;6.76;19.75;99465.88;4409830;32;20153;-76
2022/03/12 11:03:04;;;;;;;8.98;3.55;;;;;;;7.19;19.29;99469.91;4410325;32;20094;-76
2022/03/12 11:05:34;;;;;;;9.32;4.12;;;;;;;7.42;19.41;99461.19;4410499;32;20082;-77
2022/03/12 11:08:25;;;;;;;10.25;3.75;;;;;;;7.07;20.07;99464.84;4410119;32;20433;-76
2022/03/12 11:10:59;;;;;;;14.75;4.75;;;;;;;7.03;20.42;99464.91;4409189;32;20132;-77
2022/03/12 11:13:40;;;;;;;10.02;4.10;;;;;;;7.17;20.75;99456.22;4410150;32;20101;-76
2022/03/12 11:16:14;;;;;;;11.02;3.83;;;;;;;7.03;20.53;99454.63;4410245;32;20094;-76
2022/03/12 11:18:51;;;;;;;16.23;5.53;;;;;;;6.89;20.67;99450.41;4409562;32;20096;-77
2022/03/12 11:21:25;;;;;;;7.37;2.45;;;;;;;7.09;21.13;99447.72;4409987;32;20140;-77
2022/03/12 11:23:53;;;;;;;10.15;3.83;;;;;;;7.77;19.59;99438.66;4410431;32;20090;-76
2022/03/12 11:26:24;;;;;;;10.48;4.15;;;;;;;6.76;20.59;99443.66;4410327;32;20145;-76
2022/03/12 11:28:59;;;;;;;11.38;3.60;;;;;;;6.17;20.31;99441.31;4408843;32;20502;-76
2022/03/12 11:31:53;;;;;;;7.03;2.55;;;;;;;7.15;19.31;99442.56;4410247;32;20137;-76
2022/03/12 11:34:20;;;;;;;13.23;4.97;;;;;;;7.93;18.44;99446.19;4408904;32;20120;-76
2022/03/12 11:36:59;;;;;;;11.90;4.50;;;;;;;7.53;19.41;99434.56;4410303;32;20101;-76
2022/03/12 11:39:30;;;;;;;8.52;3.05;;;;;;;7.70;19.85;99438.72;4410196;32;20108;-76
2022/03/12 11:42:26;;;;;;;10.80;3.78;;;;;;;7.92;18.50;99436.78;4408706;32;20193;-76